Time;durP1;ratioP1;P1;durP2;ratioP2;P2;SDS_P1;SDS_P2;PMS_P1;PMS_P2;Temp;Humidity;BMP_temperature;BMP_pressure;BME280_temperature;BME280_humidity;BME280_pressure;Samples;Min_cycle;Max_cycle;Signal;HPM_P1;HPM_P2
2022/09/08 00:02:11;;;;;;;2.57;2.37;;;18.90;99.90;;;;;;4979399;28;20451;-93
2022/09/08 00:04:40;;;;;;;2.57;2.10;;;18.90;99.90;;;;;;4979461;28;20451;-95
2022/09/08 00:07:07;;;;;;;2.77;2.57;;;18.90;99.90;;;;;;4979458;28;20437;-94
2022/09/08 00:09:35;;;;;;;2.57;2.37;;;18.90;99.90;;;;;;4979341;28;20461;-94
2022/09/08 00:12:02;;;;;;;3.20;2.37;;;18.90;99.90;;;;;;4981014;28;20456;-94
2022/09/08 00:14:29;;;;;;;3.50;3.20;;;18.90;99.90;;;;;;4983253;28;20508;-94
2022/09/08 00:16:56;;;;;;;3.80;2.47;;;18.90;99.90;;;;;;4982718;28;20513;-94
2022/09/08 00:19:23;;;;;;;3.27;2.47;;;18.80;99.90;;;;;;4982747;28;20531;-94
2022/09/08 00:21:51;;;;;;;2.60;2.40;;;18.80;99.90;;;;;;4982729;28;20449;-93
2022/09/08 00:24:18;;;;;;;5.77;3.10;;;18.80;99.90;;;;;;4982957;28;20508;-94
2022/09/08 00:26:45;;;;;;;4.97;2.80;;;18.80;99.90;;;;;;4982784;28;20447;-95
2022/09/08 00:29:11;;;;;;;2.80;2.60;;;18.80;99.90;;;;;;4982545;28;20461;-94
2022/09/08 00:31:39;;;;;;;2.53;2.33;;;18.80;99.90;;;;;;4982469;28;20480;-92
2022/09/08 00:34:06;;;;;;;3.23;2.50;;;18.70;99.90;;;;;;4982698;28;20443;-94
2022/09/08 00:36:33;;;;;;;3.10;2.80;;;18.70;99.90;;;;;;4982350;28;20444;-94
2022/09/08 00:39:02;;;;;;;2.60;2.40;;;18.70;99.90;;;;;;4982467;28;20549;-95
2022/09/08 00:41:29;;;;;;;2.50;2.30;;;18.70;99.90;;;;;;4982472;28;20460;-93
2022/09/08 00:44:00;;;;;;;3.63;2.53;;;18.70;99.90;;;;;;4982112;28;20452;-96
2022/09/08 00:46:32;;;;;;;2.87;2.67;;;18.70;99.90;;;;;;4982319;28;20669;-95
2022/09/08 00:49:07;;;;;;;3.00;2.80;;;18.70;99.90;;;;;;4981746;28;20461;-95
2022/09/08 00:51:38;;;;;;;2.70;2.10;;;18.70;99.90;;;;;;4982097;28;20452;-94
2022/09/08 00:54:07;;;;;;;2.63;2.43;;;18.60;99.90;;;;;;4982158;28;20472;-94
2022/09/08 00:56:34;;;;;;;2.90;2.53;;;18.60;99.90;;;;;;4981714;28;20523;-94
2022/09/08 00:59:03;;;;;;;3.03;2.83;;;18.60;99.90;;;;;;4981834;28;20484;-95
2022/09/08 01:01:32;;;;;;;3.20;2.90;;;18.60;99.90;;;;;;4981897;28;20515;-94
2022/09/08 01:04:00;;;;;;;2.77;2.57;;;18.60;99.90;;;;;;4981792;28;20437;-94
2022/09/08 06:20:00;;;;;;;1.30;1.20;;;16.70;99.90;;;;;;4994950;28;20467;-93
2022/09/08 06:22:29;;;;;;;1.23;1.00;;;16.70;99.90;;;;;;4997204;28;20630;-94
2022/09/08 06:24:56;;;;;;;1.20;1.10;;;16.70;99.90;;;;;;5008766;28;20478;-94
2022/09/08 06:27:36;;;;;;;1.10;0.90;;;16.60;99.90;;;;;;5014195;28;20526;-93
2022/09/08 06:30:11;;;;;;;1.57;1.00;;;16.60;99.90;;;;;;5010791;28;20521;-93
2022/09/08 06:32:43;;;;;;;2.30;1.30;;;16.60;99.90;;;;;;5014777;28;20971;-95
2022/09/08 08:57:53;;;;;;;1.33;1.00;;;19.40;99.90;;;;;;3985782;23;20518;-92
2022/09/08 09:00:21;;;;;;;1.30;1.10;;;19.50;99.90;;;;;;4982056;28;20481;-94
2022/09/08 09:03:15;;;;;;;1.20;1.10;;;19.50;99.90;;;;;;4981182;28;20491;-93
2022/09/08 09:06:21;;;;;;;1.10;1.00;;;19.60;99.90;;;;;;4979830;28;20491;-91
2022/09/08 09:09:21;;;;;;;1.13;1.03;;;19.60;99.90;;;;;;4974683;28;20459;-92
2022/09/08 09:12:01;;;;;;;1.40;1.30;;;19.60;99.90;;;;;;4980490;28;20491;-92
2022/09/08 09:14:54;;;;;;;2.90;1.20;;;19.70;99.90;;;;;;4982430;28;21026;-93
2022/09/08 09:17:51;;;;;;;1.50;1.10;;;19.60;99.90;;;;;;4981303;28;20458;-92
2022/09/08 09:20:30;;;;;;;1.57;1.13;;;19.60;99.90;;;;;;4980343;28;20502;-93
2022/09/08 09:23:03;;;;;;;1.00;0.90;;;19.40;99.90;;;;;;4981916;28;20466;-93
2022/09/08 09:25:34;;;;;;;1.73;1.20;;;19.30;99.90;;;;;;4981062;28;20464;-93
2022/09/08 09:28:23;;;;;;;1.57;1.03;;;19.20;99.90;;;;;;4979683;28;20463;-92
2022/09/08 09:31:02;;;;;;;3.63;1.13;;;19.20;99.90;;;;;;4978202;28;20483;-92
2022/09/08 09:33:57;;;;;;;3.37;1.30;;;19.10;99.90;;;;;;4979059;28;20456;-92
2022/09/08 09:36:53;;;;;;;3.53;1.30;;;19.00;99.90;;;;;;4975750;28;20505;-93
2022/09/08 09:39:56;;;;;;;1.77;1.00;;;18.90;99.90;;;;;;4977551;28;20502;-93
2022/09/08 09:43:02;;;;;;;1.20;1.03;;;18.90;99.90;;;;;;4982673;28;20459;-93
2022/09/08 09:45:59;;;;;;;4.00;1.27;;;18.90;99.90;;;;;;4986841;28;20478;-92
2022/09/08 09:48:55;;;;;;;1.20;1.10;;;19.10;99.90;;;;;;4984030;28;20486;-93
2022/09/08 09:52:00;;;;;;;1.43;1.10;;;19.20;99.90;;;;;;4992511;28;20456;-94
2022/09/08 09:54:43;;;;;;;1.77;1.10;;;19.30;99.90;;;;;;4997447;28;20455;-95
2022/09/08 09:57:35;;;;;;;1.10;1.00;;;19.60;99.90;;;;;;4994412;28;20538;-95
2022/09/08 10:00:33;;;;;;;1.60;1.13;;;20.10;99.90;;;;;;4991619;28;20555;-94
2022/09/08 10:03:34;;;;;;;1.40;1.00;;;20.50;99.90;;;;;;4958528;28;20436;-94
2022/09/08 10:06:23;;;;;;;1.10;1.00;;;20.80;99.90;;;;;;4994455;28;20444;-95
2022/09/08 10:09:31;;;;;;;1.20;1.00;;;20.70;99.90;;;;;;4994782;28;20483;-95
2022/09/08 10:12:41;;;;;;;1.00;0.90;;;20.50;99.90;;;;;;4992443;28;20490;-95
2022/09/08 10:15:46;;;;;;;1.00;0.90;;;20.40;99.90;;;;;;4992319;28;20499;-93
2022/09/08 10:18:50;;;;;;;1.27;1.07;;;20.20;99.90;;;;;;4993542;28;20455;-94
2022/09/08 10:21:49;;;;;;;0.93;0.80;;;20.30;99.90;;;;;;4990743;28;20483;-94
2022/09/08 10:25:07;;;;;;;1.30;1.17;;;20.40;99.90;;;;;;4989068;28;20467;-94
2022/09/08 10:28:06;;;;;;;2.10;1.33;;;20.50;99.90;;;;;;4981843;28;20499;-94
2022/09/08 10:31:00;;;;;;;1.10;0.93;;;20.40;99.90;;;;;;4987545;28;20500;-93
2022/09/08 10:33:51;;;;;;;1.27;1.17;;;20.20;99.90;;;;;;4987761;28;20470;-94
2022/09/08 10:36:29;;;;;;;1.40;1.10;;;20.10;99.90;;;;;;4976757;28;21012;-94
2022/09/08 10:38:59;;;;;;;1.77;1.00;;;20.00;99.90;;;;;;4985367;28;20484;-92
2022/09/08 10:42:16;;;;;;;2.07;0.93;;;19.90;99.90;;;;;;4975672;28;20521;-92
2022/09/08 10:45:18;;;;;;;1.37;1.10;;;19.90;99.90;;;;;;4975045;28;20468;-94
2022/09/08 10:48:17;;;;;;;1.30;1.10;;;19.90;99.90;;;;;;4959938;28;20462;-92
2022/09/08 10:50:51;;;;;;;0.90;0.73;;;19.80;99.90;;;;;;4979684;28;20498;-92
2022/09/08 10:53:56;;;;;;;1.13;0.93;;;19.70;99.90;;;;;;4981644;28;20470;-92
2022/09/08 10:56:27;;;;;;;1.33;1.23;;;19.60;99.90;;;;;;4958852;28;20549;-93
2022/09/08 10:59:17;;;;;;;1.23;0.93;;;19.60;99.90;;;;;;4994578;28;20881;-94
2022/09/08 11:01:59;;;;;;;1.70;0.93;;;19.50;99.90;;;;;;4995062;28;20490;-93
2022/09/08 11:04:52;;;;;;;1.30;1.10;;;19.50;99.90;;;;;;4984596;28;20473;-91
2022/09/08 11:07:38;;;;;;;1.57;0.93;;;19.50;99.90;;;;;;4976825;28;20467;-92
2022/09/08 11:10:22;;;;;;;1.50;1.00;;;19.50;99.90;;;;;;4985023;28;20470;-92
2022/09/08 11:13:07;;;;;;;1.90;1.00;;;19.50;99.90;;;;;;4979287;28;20466;-91
2022/09/08 11:15:54;;;;;;;3.30;1.23;;;19.70;99.90;;;;;;4979042;28;20476;-92
2022/09/08 11:18:34;;;;;;;1.20;1.00;;;19.80;99.90;;;;;;4982572;28;20464;-91
2022/09/08 11:21:04;;;;;;;1.67;0.93;;;20.10;99.90;;;;;;4983741;28;20856;-91
2022/09/08 11:23:55;;;;;;;1.63;1.10;;;20.20;99.90;;;;;;4983827;28;20459;-92
2022/09/08 11:26:36;;;;;;;1.10;0.90;;;20.20;99.90;;;;;;4984220;28;20471;-95
2022/09/08 11:29:09;;;;;;;1.80;1.10;;;20.40;99.90;;;;;;4991652;28;20467;-93
2022/09/08 11:31:47;;;;;;;2.17;0.90;;;20.60;99.90;;;;;;4980249;28;20495;-90
2022/09/08 11:34:28;;;;;;;1.07;0.90;;;20.90;99.90;;;;;;4985941;28;20471;-92
2022/09/08 11:37:35;;;;;;;1.60;1.27;;;21.10;99.90;;;;;;4983627;28;20480;-92
2022/09/08 11:40:22;;;;;;;1.20;0.90;;;21.20;99.90;;;;;;4978937;28;20496;-92
2022/09/08 11:43:11;;;;;;;1.20;0.97;;;21.10;99.90;;;;;;4978051;28;20464;-91
2022/09/08 11:45:58;;;;;;;2.03;1.07;;;21.10;99.90;;;;;;4980114;28;20467;-94
2022/09/08 11:48:49;;;;;;;1.30;1.10;;;20.90;99.90;;;;;;4980075;28;20460;-91
2022/09/08 11:51:44;;;;;;;1.20;0.90;;;20.80;99.90;;;;;;4984118;28;20788;-93
2022/09/08 11:54:26;;;;;;;1.30;0.90;;;20.60;99.90;;;;;;4983370;28;20535;-92
2022/09/08 11:57:41;;;;;;;2.60;1.13;;;20.60;99.90;;;;;;4989852;28;20476;-94
2022/09/08 12:00:24;;;;;;;2.20;1.20;;;20.60;99.90;;;;;;4987808;28;20487;-93
2022/09/08 12:03:37;;;;;;;2.20;1.00;;;20.50;99.90;;;;;;4986559;28;20464;-94
2022/09/08 12:26:58;;;;;;;3.33;1.40;;;19.90;99.90;;;;;;2897084;23;20519;-94
2022/09/08 12:29:39;;;;;;;6.20;2.07;;;19.90;99.90;;;;;;4999865;28;20444;-94
2022/09/08 12:32:22;;;;;;;1.30;1.20;;;19.90;99.90;;;;;;4982059;28;20452;-93
2022/09/08 12:35:14;;;;;;;1.73;1.27;;;20.00;99.90;;;;;;4979934;28;20495;-95
2022/09/08 12:40:52;;;;;;;2.30;1.27;;;20.90;99.90;;;;;;3322624;23;20489;-95
2022/09/08 12:43:22;;;;;;;1.07;0.97;;;21.50;99.90;;;;;;5000013;28;20466;-95
2022/09/08 12:46:16;;;;;;;1.80;0.97;;;21.80;99.90;;;;;;5000500;28;20436;-94
2022/09/08 12:48:53;;;;;;;0.90;0.80;;;22.00;99.90;;;;;;4992007;28;20469;-93
2022/09/08 12:51:25;;;;;;;1.20;0.90;;;22.10;99.90;;;;;;4976670;28;20573;-92
2022/09/08 12:54:27;;;;;;;1.50;0.90;;;22.20;99.90;;;;;;4976425;28;20468;-91
2022/09/08 12:57:20;;;;;;;1.77;1.10;;;22.30;99.90;;;;;;4944768;28;20456;-91
2022/09/08 12:59:57;;;;;;;1.77;1.57;;;22.20;99.90;;;;;;4976223;28;20483;-93
2022/09/08 13:02:41;;;;;;;1.00;0.90;;;22.30;99.90;;;;;;4975824;28;20471;-91
2022/09/08 13:05:24;;;;;;;1.43;1.33;;;22.30;99.90;;;;;;4979050;28;20464;-92
2022/09/08 13:08:04;;;;;;;1.47;1.00;;;22.30;99.90;;;;;;4978798;28;20470;-93
2022/09/08 13:13:36;;;;;;;1.77;0.80;;;22.00;99.90;;;;;;5080835;23;20536;-92
2022/09/08 13:16:15;;;;;;;1.80;1.10;;;22.10;99.90;;;;;;4997131;28;20540;-94
2022/09/08 13:18:52;;;;;;;2.00;1.10;;;22.40;99.90;;;;;;4997911;28;20446;-94
2022/09/08 13:21:26;;;;;;;1.17;0.90;;;22.70;99.90;;;;;;4999480;28;20487;-94
2022/09/08 13:23:57;;;;;;;1.10;1.00;;;23.00;99.90;;;;;;4999562;28;20512;-94
2022/09/08 13:26:59;;;;;;;1.97;1.13;;;22.90;99.90;;;;;;4999792;28;20450;-93
2022/09/08 13:30:02;;;;;;;1.30;0.87;;;22.60;99.90;;;;;;4969290;28;20447;-94
2022/09/08 13:32:46;;;;;;;1.27;0.83;;;22.40;99.90;;;;;;4999569;28;20535;-93
2022/09/08 13:35:25;;;;;;;3.47;1.17;;;22.40;99.90;;;;;;4999735;28;20533;-95
2022/09/08 13:38:10;;;;;;;1.30;0.87;;;22.70;99.90;;;;;;4998547;28;20460;-94
2022/09/08 13:40:47;;;;;;;1.60;1.13;;;23.00;99.90;;;;;;4994900;28;20498;-95
2022/09/08 13:43:28;;;;;;;1.10;0.97;;;23.20;99.90;;;;;;4994742;28;20456;-94
2022/09/08 13:46:08;;;;;;;1.70;1.00;;;23.30;99.90;;;;;;4995930;28;20466;-94
2022/09/08 13:48:52;;;;;;;3.00;1.10;;;23.40;99.90;;;;;;4996413;28;20465;-94
2022/09/08 13:51:40;;;;;;;1.10;1.00;;;23.50;99.90;;;;;;4995397;28;20485;-95
2022/09/08 13:54:49;;;;;;;1.67;1.03;;;23.60;99.90;;;;;;4990403;28;20455;-94
2022/09/08 13:57:32;;;;;;;2.30;1.10;;;23.60;99.90;;;;;;5000165;28;20515;-96
2022/09/08 14:00:11;;;;;;;1.03;0.93;;;23.70;99.90;;;;;;5000242;28;20565;-96
2022/09/08 14:05:22;;;;;;;1.10;0.90;;;23.70;99.90;;;;;;4997271;28;20235;-95
2022/09/08 14:07:55;;;;;;;1.17;1.07;;;23.60;99.90;;;;;;4999421;28;20480;-95
2022/09/08 14:10:42;;;;;;;1.73;0.97;;;23.60;99.90;;;;;;4999922;28;20453;-95
2022/09/08 14:13:27;;;;;;;2.50;1.00;;;23.40;99.90;;;;;;4999259;28;20447;-96
2022/09/08 14:16:03;;;;;;;1.53;1.00;;;23.30;99.90;;;;;;5000062;28;20457;-95
2022/09/08 14:18:44;;;;;;;1.20;1.00;;;23.30;99.90;;;;;;4999767;28;20518;-94
2022/09/08 14:21:21;;;;;;;1.57;1.10;;;23.30;99.90;;;;;;4999700;28;20481;-95
2022/09/08 14:24:02;;;;;;;2.07;1.20;;;23.20;99.90;;;;;;4999556;28;20521;-96
2022/09/08 14:26:44;;;;;;;1.10;0.90;;;23.10;99.90;;;;;;4999678;28;20454;-95
2022/09/08 14:29:21;;;;;;;3.17;1.20;;;23.10;99.90;;;;;;5033456;23;20490;-95
